Macondo — 3EYB9 — position and weather

sailwx.info

Track history (hours):
 
Tides and Currents Weather Stations Pressure Air Temp Water Temp Dewpoint Dewpoint Depression Visibility Wind Speed Wind Dir Waves Ship Positions

Macondo

Last reported at 2015-Feb-18 09:28 UTC. Time now 2015-Feb-27 22:46 UTC.
Position N 29°21' W 094°47'.
Warning: this ship's position is 9 days out of date.

Length 120 m; draft 6.5 m.

Type: Ship. MMSI: 371293000.

Date/timePositionNaut miles runAvg speedWind from/ knotsBaromVisibWave heightAir tempDewpointWater temp
2015-Feb-18 09:28N 29°21' W 094°47'1010.8
2015-Feb-18 08:33N 29°30' W 094°52'1110.9
2015-Feb-18 07:33N 29°39' W 094°58'9 9.1
2015-Feb-18 06:34N 29°46' W 095°05'2 2.2
2015-Feb-18 05:34N 29°44' W 095°07'0 0.0
2015-Feb-18 04:34N 29°44' W 095°07'0 0.0
2015-Feb-18 03:34N 29°44' W 095°07'0 0.0
2015-Feb-18 02:33N 29°44' W 095°07'0 0.0
2015-Feb-18 01:34N 29°44' W 095°07'0 0.0
2015-Feb-18 00:34N 29°44' W 095°07'0 0.0
2015-Feb-17 23:33N 29°44' W 095°07'0 0.0
2015-Feb-17 22:34N 29°44' W 095°07'0 0.0
2015-Feb-17 21:34N 29°44' W 095°07'0 0.0
2015-Feb-17 20:34N 29°44' W 095°07'0 0.0
2015-Feb-17 19:33N 29°44' W 095°07'0 0.0
2015-Feb-17 17:34N 29°44' W 095°07'0 0.0
2015-Feb-17 16:34N 29°44' W 095°07'0 0.0
2015-Feb-17 15:33N 29°44' W 095°07'0 0.0
2015-Feb-17 14:33N 29°44' W 095°07'0 0.0
2015-Feb-17 13:34N 29°44' W 095°07'0 0.0
2015-Feb-17 12:33N 29°44' W 095°07'0 0.0
2015-Feb-17 11:34N 29°44' W 095°07'0 0.0
2015-Feb-17 10:34N 29°44' W 095°07'0 0.0
2015-Feb-17 09:34N 29°44' W 095°07'0 0.0
2015-Feb-17 08:34N 29°44' W 095°07'0 0.0
2015-Feb-17 07:33N 29°44' W 095°07'0 0.0
2015-Feb-17 06:34N 29°44' W 095°07'0 0.0
2015-Feb-17 05:34N 29°44' W 095°07'0 0.0
2015-Feb-17 04:33N 29°44' W 095°07'0 0.0
2015-Feb-17 03:34N 29°44' W 095°07'0 0.0
2015-Feb-17 02:34N 29°44' W 095°07'0 0.0
2015-Feb-17 01:33N 29°44' W 095°07'0 0.0
2015-Feb-17 00:33N 29°44' W 095°07'0 0.0
2015-Feb-16 23:33N 29°44' W 095°07'0 0.0
2015-Feb-16 22:33N 29°44' W 095°07'0 0.0
2015-Feb-16 21:33N 29°44' W 095°07'0 0.0
2015-Feb-16 20:34N 29°44' W 095°07'0 0.0
2015-Feb-16 19:33N 29°44' W 095°07'0 0.0
2015-Feb-16 18:33N 29°44' W 095°07'0 0.1
2015-Feb-16 17:33N 29°44' W 095°07'0 0.0
2015-Feb-16 16:32N 29°44' W 095°07'0 0.0
2015-Feb-16 15:33N 29°44' W 095°07'0 0.0
2015-Feb-16 14:33N 29°44' W 095°07'0 0.0
2015-Feb-16 13:33N 29°44' W 095°07'0 0.0
2015-Feb-16 12:26N 29°44' W 095°07'0 0.0
2015-Feb-16 11:09N 29°44' W 095°07'0 0.0
2015-Feb-16 10:31N 29°44' W 095°07'0 0.0
2015-Feb-16 07:30N 29°44' W 095°07'0 0.0
2015-Feb-16 06:31N 29°44' W 095°07'0 0.0
2015-Feb-16 04:33N 29°44' W 095°07'0 0.1
2015-Feb-16 03:33N 29°44' W 095°07'0 0.0
2015-Feb-16 02:34N 29°44' W 095°07'0 0.0
2015-Feb-16 01:33N 29°44' W 095°07'0 0.0
2015-Feb-16 00:33N 29°44' W 095°07'0 0.0
2015-Feb-15 23:33N 29°44' W 095°07'0 0.0
2015-Feb-15 22:30N 29°44' W 095°07'0 0.0
2015-Feb-15 21:33N 29°44' W 095°07'0 0.0
2015-Feb-15 20:33N 29°44' W 095°07'0 0.0
2015-Feb-15 19:33N 29°44' W 095°07'0 0.0
2015-Feb-15 18:33N 29°44' W 095°07'0 0.0
2015-Feb-15 17:33N 29°44' W 095°07'0 0.0
2015-Feb-15 16:33N 29°44' W 095°07'0 0.0
2015-Feb-15 15:28N 29°44' W 095°07'0 0.0
2015-Feb-15 14:26N 29°44' W 095°07'0 0.0
2015-Feb-15 13:31N 29°44' W 095°07'0 0.0
2015-Feb-15 12:31N 29°44' W 095°07'0 0.0
2015-Feb-15 09:32N 29°44' W 095°07'0 0.0
2015-Feb-15 06:32N 29°44' W 095°07'0 0.0
2015-Feb-15 04:33N 29°44' W 095°07'0 0.0
2015-Feb-15 03:33N 29°44' W 095°07'0 0.0
2015-Feb-15 02:33N 29°44' W 095°07'0 0.0
2015-Feb-15 01:32N 29°44' W 095°07'0 0.0
2015-Feb-15 00:33N 29°44' W 095°07'0 0.0
2015-Feb-14 23:33N 29°44' W 095°07'5 5.2
2015-Feb-14 22:33N 29°43' W 095°01'1010.0
2015-Feb-14 21:33N 29°34' W 094°56'  
2015-Feb-12 12:33N 19°26' W 095°57'1111.4
2015-Feb-12 11:33N 19°15' W 095°58'9 9.2
2015-Feb-12 10:33N 19°12' W 096°07'1 1.0
2015-Feb-12 09:33N 19°12' W 096°08'0 0.0
2015-Feb-12 08:33N 19°12' W 096°08'0 0.0
2015-Feb-12 07:33N 19°12' W 096°08'0 0.0
2015-Feb-12 06:33N 19°12' W 096°08'0 0.0
2015-Feb-12 05:33N 19°12' W 096°08'0 0.0
2015-Feb-12 04:33N 19°12' W 096°08'0 0.0
2015-Feb-12 03:33N 19°12' W 096°08'0 0.0
2015-Feb-12 02:33N 19°12' W 096°08'0 0.0
2015-Feb-12 01:33N 19°12' W 096°08'0 0.0
2015-Feb-12 00:33N 19°12' W 096°08'0 0.0
2015-Feb-11 23:33N 19°12' W 096°08'0 0.0
2015-Feb-11 22:33N 19°12' W 096°08'0 0.0
2015-Feb-11 21:33N 19°12' W 096°08'0 0.0
2015-Feb-11 20:33N 19°12' W 096°08'0 0.0
2015-Feb-11 19:33N 19°12' W 096°08'0 0.0
2015-Feb-11 18:33N 19°12' W 096°08'0 0.0
2015-Feb-11 17:33N 19°12' W 096°08'0 0.0
2015-Feb-11 16:33N 19°12' W 096°08'0 0.0
2015-Feb-11 15:33N 19°12' W 096°08'0 0.0
2015-Feb-11 14:33N 19°12' W 096°08'0 0.0
2015-Feb-11 13:33N 19°12' W 096°08'0 0.0
2015-Feb-11 12:34N 19°12' W 096°08'0 0.0
2015-Feb-11 11:33N 19°12' W 096°08'0 0.0
2015-Feb-11 10:33N 19°12' W 096°08'0 0.0
2015-Feb-11 09:34N 19°12' W 096°08'0 0.0
2015-Feb-11 08:33N 19°12' W 096°08'0 0.0
2015-Feb-11 07:33N 19°12' W 096°08'0 0.0
2015-Feb-11 06:34N 19°12' W 096°08'0 0.0
2015-Feb-11 05:33N 19°12' W 096°08'0 0.0
2015-Feb-11 04:33N 19°12' W 096°08'0 0.0
2015-Feb-11 03:33N 19°12' W 096°08'0 0.0
2015-Feb-11 02:33N 19°12' W 096°08'0 0.0
2015-Feb-11 01:33N 19°12' W 096°08'0 0.0
2015-Feb-11 00:33N 19°12' W 096°08'0 0.0
2015-Feb-10 23:33N 19°12' W 096°08'0 0.0
2015-Feb-10 22:33N 19°12' W 096°08'0 0.0
2015-Feb-10 21:33N 19°12' W 096°08'0 0.0
2015-Feb-10 20:33N 19°12' W 096°08'0 0.0
2015-Feb-10 19:34N 19°12' W 096°08'0 0.0
2015-Feb-10 18:33N 19°12' W 096°08'0 0.0
2015-Feb-10 17:34N 19°12' W 096°08'0 0.0
2015-Feb-10 16:33N 19°12' W 096°08'0 0.0
2015-Feb-10 15:33N 19°12' W 096°08'0 0.0
2015-Feb-10 14:33N 19°12' W 096°08'0 0.0
2015-Feb-10 13:33N 19°12' W 096°08'0 0.0
2015-Feb-10 12:34N 19°12' W 096°08'0 0.0
2015-Feb-10 11:34N 19°12' W 096°08'0 0.0
2015-Feb-10 10:33N 19°12' W 096°08'0 0.0
2015-Feb-10 09:33N 19°12' W 096°08'0 0.0
2015-Feb-10 08:33N 19°12' W 096°08'0 0.0
2015-Feb-10 07:34N 19°12' W 096°08'0 0.0
2015-Feb-10 06:34N 19°12' W 096°08'0 0.0
2015-Feb-10 05:33N 19°12' W 096°08'0 0.0
2015-Feb-10 04:33N 19°12' W 096°08'0 0.0
2015-Feb-10 03:34N 19°12' W 096°08'0 0.0
2015-Feb-10 02:33N 19°12' W 096°08'0 0.0
2015-Feb-10 01:33N 19°12' W 096°08'0 0.0
2015-Feb-10 00:33N 19°12' W 096°08'0 0.0
2015-Feb-09 23:33N 19°12' W 096°08'0 0.0
2015-Feb-09 22:33N 19°12' W 096°08'0 0.0
2015-Feb-09 21:34N 19°12' W 096°08'0 0.0
2015-Feb-09 20:33N 19°12' W 096°08'0 0.0
2015-Feb-09 19:34N 19°12' W 096°08'0 0.0
2015-Feb-09 18:34N 19°12' W 096°08'0 0.0
2015-Feb-09 17:34N 19°12' W 096°08'0 0.0
2015-Feb-09 16:34N 19°12' W 096°08'0 0.0
2015-Feb-09 15:33N 19°12' W 096°08'0 0.0
2015-Feb-09 14:33N 19°12' W 096°08'0 0.0
2015-Feb-09 13:34N 19°12' W 096°08'0 0.0
2015-Feb-09 12:33N 19°12' W 096°08'0 0.0
2015-Feb-09 11:33N 19°12' W 096°08'0 0.0
2015-Feb-09 10:34N 19°12' W 096°08'0 0.0
2015-Feb-09 09:34N 19°12' W 096°08'0 0.0
2015-Feb-09 08:34N 19°12' W 096°08'0 0.0
2015-Feb-09 07:34N 19°12' W 096°08'0 0.0
2015-Feb-09 06:34N 19°12' W 096°08'0 0.0
2015-Feb-09 05:34N 19°12' W 096°08'0 0.0
2015-Feb-09 04:34N 19°12' W 096°08'0 0.0
2015-Feb-09 03:34N 19°12' W 096°08'0 0.0
2015-Feb-09 02:34N 19°12' W 096°08'0 0.0
2015-Feb-09 01:33N 19°12' W 096°08'0 0.0
2015-Feb-09 00:34N 19°12' W 096°08'0 0.0
2015-Feb-08 23:34N 19°12' W 096°08'0 0.0
2015-Feb-08 22:34N 19°12' W 096°08'0 0.0
2015-Feb-08 21:34N 19°12' W 096°08'0 0.0
2015-Feb-08 20:34N 19°12' W 096°08'0 0.0
2015-Feb-08 19:34N 19°12' W 096°08'0 0.0
2015-Feb-08 18:34N 19°12' W 096°08'0 0.0
2015-Feb-08 17:33N 19°12' W 096°08'0 0.0
2015-Feb-08 16:34N 19°12' W 096°08'0 0.0
2015-Feb-08 15:34N 19°12' W 096°08'0 0.0
2015-Feb-08 14:34N 19°12' W 096°08'0 0.0
2015-Feb-08 13:33N 19°12' W 096°08'0 0.0
2015-Feb-08 12:34N 19°12' W 096°08'0 0.0
2015-Feb-08 11:34N 19°12' W 096°08'0 0.0
2015-Feb-08 10:34N 19°12' W 096°08'0 0.0
2015-Feb-08 09:34N 19°12' W 096°08'  
Track history (hours):
 
Tides and Currents Weather Stations Pressure Air Temp Water Temp Dewpoint Dewpoint Depression Visibility Wind Speed Wind Dir Waves Ship Positions

Macondo

Last reported at 2015-Feb-18 09:28 UTC. Time now 2015-Feb-27 22:46 UTC.
Position N 29°21' W 094°47'.
Warning: this ship's position is 9 days out of date.

Length 120 m; draft 6.5 m.

Type: Ship. MMSI: 371293000.

Date/timePositionNaut miles runAvg speedWind from/ knotsBaromVisibWave heightAir tempDewpointWater temp
2015-Feb-18 09:28N 29°21' W 094°47'1010.8
2015-Feb-18 08:33N 29°30' W 094°52'1110.9
2015-Feb-18 07:33N 29°39' W 094°58'9 9.1
2015-Feb-18 06:34N 29°46' W 095°05'2 2.2
2015-Feb-18 05:34N 29°44' W 095°07'0 0.0
2015-Feb-18 04:34N 29°44' W 095°07'0 0.0
2015-Feb-18 03:34N 29°44' W 095°07'0 0.0
2015-Feb-18 02:33N 29°44' W 095°07'0 0.0
2015-Feb-18 01:34N 29°44' W 095°07'0 0.0
2015-Feb-18 00:34N 29°44' W 095°07'0 0.0
2015-Feb-17 23:33N 29°44' W 095°07'0 0.0
2015-Feb-17 22:34N 29°44' W 095°07'0 0.0
2015-Feb-17 21:34N 29°44' W 095°07'0 0.0
2015-Feb-17 20:34N 29°44' W 095°07'0 0.0
2015-Feb-17 19:33N 29°44' W 095°07'0 0.0
2015-Feb-17 17:34N 29°44' W 095°07'0 0.0
2015-Feb-17 16:34N 29°44' W 095°07'0 0.0
2015-Feb-17 15:33N 29°44' W 095°07'0 0.0
2015-Feb-17 14:33N 29°44' W 095°07'0 0.0
2015-Feb-17 13:34N 29°44' W 095°07'0 0.0
2015-Feb-17 12:33N 29°44' W 095°07'0 0.0
2015-Feb-17 11:34N 29°44' W 095°07'0 0.0
2015-Feb-17 10:34N 29°44' W 095°07'0 0.0
2015-Feb-17 09:34N 29°44' W 095°07'0 0.0
2015-Feb-17 08:34N 29°44' W 095°07'0 0.0
2015-Feb-17 07:33N 29°44' W 095°07'0 0.0
2015-Feb-17 06:34N 29°44' W 095°07'0 0.0
2015-Feb-17 05:34N 29°44' W 095°07'0 0.0
2015-Feb-17 04:33N 29°44' W 095°07'0 0.0
2015-Feb-17 03:34N 29°44' W 095°07'0 0.0
2015-Feb-17 02:34N 29°44' W 095°07'0 0.0
2015-Feb-17 01:33N 29°44' W 095°07'0 0.0
2015-Feb-17 00:33N 29°44' W 095°07'0 0.0
2015-Feb-16 23:33N 29°44' W 095°07'0 0.0
2015-Feb-16 22:33N 29°44' W 095°07'0 0.0
2015-Feb-16 21:33N 29°44' W 095°07'0 0.0
2015-Feb-16 20:34N 29°44' W 095°07'0 0.0
2015-Feb-16 19:33N 29°44' W 095°07'0 0.0
2015-Feb-16 18:33N 29°44' W 095°07'0 0.1
2015-Feb-16 17:33N 29°44' W 095°07'0 0.0
2015-Feb-16 16:32N 29°44' W 095°07'0 0.0
2015-Feb-16 15:33N 29°44' W 095°07'0 0.0
2015-Feb-16 14:33N 29°44' W 095°07'0 0.0
2015-Feb-16 13:33N 29°44' W 095°07'0 0.0
2015-Feb-16 12:26N 29°44' W 095°07'0 0.0
2015-Feb-16 11:09N 29°44' W 095°07'0 0.0
2015-Feb-16 10:31N 29°44' W 095°07'0 0.0
2015-Feb-16 07:30N 29°44' W 095°07'0 0.0
2015-Feb-16 06:31N 29°44' W 095°07'0 0.0
2015-Feb-16 04:33N 29°44' W 095°07'0 0.1
2015-Feb-16 03:33N 29°44' W 095°07'0 0.0
2015-Feb-16 02:34N 29°44' W 095°07'0 0.0
2015-Feb-16 01:33N 29°44' W 095°07'0 0.0
2015-Feb-16 00:33N 29°44' W 095°07'0 0.0
2015-Feb-15 23:33N 29°44' W 095°07'0 0.0
2015-Feb-15 22:30N 29°44' W 095°07'0 0.0
2015-Feb-15 21:33N 29°44' W 095°07'0 0.0
2015-Feb-15 20:33N 29°44' W 095°07'0 0.0
2015-Feb-15 19:33N 29°44' W 095°07'0 0.0
2015-Feb-15 18:33N 29°44' W 095°07'0 0.0
2015-Feb-15 17:33N 29°44' W 095°07'0 0.0
2015-Feb-15 16:33N 29°44' W 095°07'0 0.0
2015-Feb-15 15:28N 29°44' W 095°07'0 0.0
2015-Feb-15 14:26N 29°44' W 095°07'0 0.0
2015-Feb-15 13:31N 29°44' W 095°07'0 0.0
2015-Feb-15 12:31N 29°44' W 095°07'0 0.0
2015-Feb-15 09:32N 29°44' W 095°07'0 0.0
2015-Feb-15 06:32N 29°44' W 095°07'0 0.0
2015-Feb-15 04:33N 29°44' W 095°07'0 0.0
2015-Feb-15 03:33N 29°44' W 095°07'0 0.0
2015-Feb-15 02:33N 29°44' W 095°07'0 0.0
2015-Feb-15 01:32N 29°44' W 095°07'0 0.0
2015-Feb-15 00:33N 29°44' W 095°07'0 0.0
2015-Feb-14 23:33N 29°44' W 095°07'5 5.2
2015-Feb-14 22:33N 29°43' W 095°01'1010.0
2015-Feb-14 21:33N 29°34' W 094°56'  
2015-Feb-12 12:33N 19°26' W 095°57'1111.4
2015-Feb-12 11:33N 19°15' W 095°58'9 9.2
2015-Feb-12 10:33N 19°12' W 096°07'1 1.0
2015-Feb-12 09:33N 19°12' W 096°08'0 0.0
2015-Feb-12 08:33N 19°12' W 096°08'0 0.0
2015-Feb-12 07:33N 19°12' W 096°08'0 0.0
2015-Feb-12 06:33N 19°12' W 096°08'0 0.0
2015-Feb-12 05:33N 19°12' W 096°08'0 0.0
2015-Feb-12 04:33N 19°12' W 096°08'0 0.0
2015-Feb-12 03:33N 19°12' W 096°08'0 0.0
2015-Feb-12 02:33N 19°12' W 096°08'0 0.0
2015-Feb-12 01:33N 19°12' W 096°08'0 0.0
2015-Feb-12 00:33N 19°12' W 096°08'0 0.0
2015-Feb-11 23:33N 19°12' W 096°08'0 0.0
2015-Feb-11 22:33N 19°12' W 096°08'0 0.0
2015-Feb-11 21:33N 19°12' W 096°08'0 0.0
2015-Feb-11 20:33N 19°12' W 096°08'0 0.0
2015-Feb-11 19:33N 19°12' W 096°08'0 0.0
2015-Feb-11 18:33N 19°12' W 096°08'0 0.0
2015-Feb-11 17:33N 19°12' W 096°08'0 0.0
2015-Feb-11 16:33N 19°12' W 096°08'0 0.0
2015-Feb-11 15:33N 19°12' W 096°08'0 0.0
2015-Feb-11 14:33N 19°12' W 096°08'0 0.0
2015-Feb-11 13:33N 19°12' W 096°08'0 0.0
2015-Feb-11 12:34N 19°12' W 096°08'0 0.0
2015-Feb-11 11:33N 19°12' W 096°08'0 0.0
2015-Feb-11 10:33N 19°12' W 096°08'0 0.0
2015-Feb-11 09:34N 19°12' W 096°08'0 0.0
2015-Feb-11 08:33N 19°12' W 096°08'0 0.0
2015-Feb-11 07:33N 19°12' W 096°08'0 0.0
2015-Feb-11 06:34N 19°12' W 096°08'0 0.0
2015-Feb-11 05:33N 19°12' W 096°08'0 0.0
2015-Feb-11 04:33N 19°12' W 096°08'0 0.0
2015-Feb-11 03:33N 19°12' W 096°08'0 0.0
2015-Feb-11 02:33N 19°12' W 096°08'0 0.0
2015-Feb-11 01:33N 19°12' W 096°08'0 0.0
2015-Feb-11 00:33N 19°12' W 096°08'0 0.0
2015-Feb-10 23:33N 19°12' W 096°08'0 0.0
2015-Feb-10 22:33N 19°12' W 096°08'0 0.0
2015-Feb-10 21:33N 19°12' W 096°08'0 0.0
2015-Feb-10 20:33N 19°12' W 096°08'0 0.0
2015-Feb-10 19:34N 19°12' W 096°08'0 0.0
2015-Feb-10 18:33N 19°12' W 096°08'0 0.0
2015-Feb-10 17:34N 19°12' W 096°08'0 0.0
2015-Feb-10 16:33N 19°12' W 096°08'0 0.0
2015-Feb-10 15:33N 19°12' W 096°08'0 0.0
2015-Feb-10 14:33N 19°12' W 096°08'0 0.0
2015-Feb-10 13:33N 19°12' W 096°08'0 0.0
2015-Feb-10 12:34N 19°12' W 096°08'0 0.0
2015-Feb-10 11:34N 19°12' W 096°08'0 0.0
2015-Feb-10 10:33N 19°12' W 096°08'0 0.0
2015-Feb-10 09:33N 19°12' W 096°08'0 0.0
2015-Feb-10 08:33N 19°12' W 096°08'0 0.0
2015-Feb-10 07:34N 19°12' W 096°08'0 0.0
2015-Feb-10 06:34N 19°12' W 096°08'0 0.0
2015-Feb-10 05:33N 19°12' W 096°08'0 0.0
2015-Feb-10 04:33N 19°12' W 096°08'0 0.0
2015-Feb-10 03:34N 19°12' W 096°08'0 0.0
2015-Feb-10 02:33N 19°12' W 096°08'0 0.0
2015-Feb-10 01:33N 19°12' W 096°08'0 0.0
2015-Feb-10 00:33N 19°12' W 096°08'0 0.0
2015-Feb-09 23:33N 19°12' W 096°08'0 0.0
2015-Feb-09 22:33N 19°12' W 096°08'0 0.0
2015-Feb-09 21:34N 19°12' W 096°08'0 0.0
2015-Feb-09 20:33N 19°12' W 096°08'0 0.0
2015-Feb-09 19:34N 19°12' W 096°08'0 0.0
2015-Feb-09 18:34N 19°12' W 096°08'0 0.0
2015-Feb-09 17:34N 19°12' W 096°08'0 0.0
2015-Feb-09 16:34N 19°12' W 096°08'0 0.0
2015-Feb-09 15:33N 19°12' W 096°08'0 0.0
2015-Feb-09 14:33N 19°12' W 096°08'0 0.0
2015-Feb-09 13:34N 19°12' W 096°08'0 0.0
2015-Feb-09 12:33N 19°12' W 096°08'0 0.0
2015-Feb-09 11:33N 19°12' W 096°08'0 0.0
2015-Feb-09 10:34N 19°12' W 096°08'0 0.0
2015-Feb-09 09:34N 19°12' W 096°08'0 0.0
2015-Feb-09 08:34N 19°12' W 096°08'0 0.0
2015-Feb-09 07:34N 19°12' W 096°08'0 0.0
2015-Feb-09 06:34N 19°12' W 096°08'0 0.0
2015-Feb-09 05:34N 19°12' W 096°08'0 0.0
2015-Feb-09 04:34N 19°12' W 096°08'0 0.0
2015-Feb-09 03:34N 19°12' W 096°08'0 0.0
2015-Feb-09 02:34N 19°12' W 096°08'0 0.0
2015-Feb-09 01:33N 19°12' W 096°08'0 0.0
2015-Feb-09 00:34N 19°12' W 096°08'0 0.0
2015-Feb-08 23:34N 19°12' W 096°08'0 0.0
2015-Feb-08 22:34N 19°12' W 096°08'0 0.0
2015-Feb-08 21:34N 19°12' W 096°08'0 0.0
2015-Feb-08 20:34N 19°12' W 096°08'0 0.0
2015-Feb-08 19:34N 19°12' W 096°08'0 0.0
2015-Feb-08 18:34N 19°12' W 096°08'0 0.0
2015-Feb-08 17:33N 19°12' W 096°08'0 0.0
2015-Feb-08 16:34N 19°12' W 096°08'0 0.0
2015-Feb-08 15:34N 19°12' W 096°08'0 0.0
2015-Feb-08 14:34N 19°12' W 096°08'0 0.0
2015-Feb-08 13:33N 19°12' W 096°08'0 0.0
2015-Feb-08 12:34N 19°12' W 096°08'0 0.0
2015-Feb-08 11:34N 19°12' W 096°08'0 0.0
2015-Feb-08 10:34N 19°12' W 096°08'0 0.0
2015-Feb-08 09:34N 19°12' W 096°08'  

Dump ship's entire track history